sensor_id;sensor_type;location;lat;lon;timestamp;pressure;altitude;pressure_sealevel;temperature;humidity
27040;BME280;14589;51.578;7.306;2023-08-12T00:01:25;101278.44;;;21.77;100.00
27040;BME280;14589;51.578;7.306;2023-08-12T00:03:56;101283.13;;;21.84;100.00
27040;BME280;14589;51.578;7.306;2023-08-12T00:06:26;101278.00;;;21.80;100.00
27040;BME280;14589;51.578;7.306;2023-08-12T00:08:58;101269.53;;;21.82;100.00
27040;BME280;14589;51.578;7.306;2023-08-12T00:11:28;101276.97;;;21.88;100.00
27040;BME280;14589;51.578;7.306;2023-08-12T00:13:59;101264.88;;;21.89;100.00
27040;BME280;14589;51.578;7.306;2023-08-12T00:16:29;101268.03;;;21.86;100.00
27040;BME280;14589;51.578;7.306;2023-08-12T00:18:59;101273.16;;;21.89;100.00
27040;BME280;14589;51.578;7.306;2023-08-12T00:21:30;101270.41;;;21.89;100.00
27040;BME280;14589;51.578;7.306;2023-08-12T00:24:01;101257.00;;;21.93;100.00
27040;BME280;14589;51.578;7.306;2023-08-12T00:26:32;101262.97;;;21.90;100.00
27040;BME280;14589;51.578;7.306;2023-08-12T00:29:02;101261.91;;;21.84;100.00
27040;BME280;14589;51.578;7.306;2023-08-12T00:31:33;101260.00;;;21.85;100.00
27040;BME280;14589;51.578;7.306;2023-08-12T00:34:04;101248.50;;;21.81;100.00
27040;BME280;14589;51.578;7.306;2023-08-12T00:36:34;101258.91;;;21.86;100.00
27040;BME280;14589;51.578;7.306;2023-08-12T00:39:05;101250.41;;;21.80;100.00
27040;BME280;14589;51.578;7.306;2023-08-12T00:41:36;101251.72;;;21.85;100.00
27040;BME280;14589;51.578;7.306;2023-08-12T00:44:06;101250.19;;;21.82;100.00
27040;BME280;14589;51.578;7.306;2023-08-12T00:46:40;101243.19;;;21.86;100.00
27040;BME280;14589;51.578;7.306;2023-08-12T00:49:11;101242.56;;;21.84;100.00
27040;BME280;14589;51.578;7.306;2023-08-12T00:51:44;101236.81;;;21.72;100.00
27040;BME280;14589;51.578;7.306;2023-08-12T00:54:16;101239.13;;;21.69;100.00
27040;BME280;14589;51.578;7.306;2023-08-12T00:56:48;101228.28;;;21.67;100.00
27040;BME280;14589;51.578;7.306;2023-08-12T00:59:22;101229.34;;;21.66;100.00
27040;BME280;14589;51.578;7.306;2023-08-12T01:01:53;101235.72;;;21.67;100.00
27040;BME280;14589;51.578;7.306;2023-08-12T01:04:24;101234.63;;;21.61;100.00
27040;BME280;14589;51.578;7.306;2023-08-12T01:06:55;101233.38;;;21.64;100.00
27040;BME280;14589;51.578;7.306;2023-08-12T01:09:25;101233.38;;;21.64;100.00
27040;BME280;14589;51.578;7.306;2023-08-12T01:12:03;101224.91;;;21.65;100.00
27040;BME280;14589;51.578;7.306;2023-08-12T01:17:09;101221.91;;;21.67;100.00
27040;BME280;14589;51.578;7.306;2023-08-12T01:19:42;101228.28;;;21.67;100.00
27040;BME280;14589;51.578;7.306;2023-08-12T01:22:14;101233.59;;;21.69;100.00
27040;BME280;14589;51.578;7.306;2023-08-12T01:24:46;101237.84;;;21.65;100.00
27040;BME280;14589;51.578;7.306;2023-08-12T01:27:17;101228.69;;;21.58;100.00
27040;BME280;14589;51.578;7.306;2023-08-12T01:29:50;101240.63;;;21.65;100.00
27040;BME280;14589;51.578;7.306;2023-08-12T01:32:34;101226.16;;;21.63;100.00
27040;BME280;14589;51.578;7.306;2023-08-12T01:35:07;101234.88;;;21.60;100.00
27040;BME280;14589;51.578;7.306;2023-08-12T01:37:40;101221.28;;;21.58;100.00
27040;BME280;14589;51.578;7.306;2023-08-12T01:40:11;101225.75;;;21.59;100.00
27040;BME280;14589;51.578;7.306;2023-08-12T01:42:43;101215.94;;;21.57;100.00
27040;BME280;14589;51.578;7.306;2023-08-12T01:45:14;101216.38;;;21.60;100.00
27040;BME280;14589;51.578;7.306;2023-08-12T01:47:45;101200.03;;;21.52;100.00
27040;BME280;14589;51.578;7.306;2023-08-12T01:50:15;101206.41;;;21.53;100.00
27040;BME280;14589;51.578;7.306;2023-08-12T01:52:46;101210.41;;;21.50;100.00
27040;BME280;14589;51.578;7.306;2023-08-12T01:55:16;101211.69;;;21.54;100.00
27040;BME280;14589;51.578;7.306;2023-08-12T01:57:47;101211.91;;;21.53;100.00
27040;BME280;14589;51.578;7.306;2023-08-12T02:00:18;101204.69;;;21.52;100.00
27040;BME280;14589;51.578;7.306;2023-08-12T02:02:48;101211.69;;;21.48;100.00
27040;BME280;14589;51.578;7.306;2023-08-12T02:05:22;101205.94;;;21.49;100.00
27040;BME280;14589;51.578;7.306;2023-08-12T02:07:54;101221.25;;;21.52;100.00
27040;BME280;14589;51.578;7.306;2023-08-12T02:10:24;101194.69;;;21.44;100.00
27040;BME280;14589;51.578;7.306;2023-08-12T02:12:57;101204.47;;;21.47;100.00
27040;BME280;14589;51.578;7.306;2023-08-12T02:15:27;101201.91;;;21.45;100.00
27040;BME280;14589;51.578;7.306;2023-08-12T02:17:58;101195.53;;;21.38;100.00
27040;BME280;14589;51.578;7.306;2023-08-12T02:20:29;101198.72;;;21.42;100.00
27040;BME280;14589;51.578;7.306;2023-08-12T02:23:00;101189.38;;;21.43;100.00
27040;BME280;14589;51.578;7.306;2023-08-12T02:25:30;101180.88;;;21.37;100.00
27040;BME280;14589;51.578;7.306;2023-08-12T02:28:01;101194.28;;;21.41;100.00
27040;BME280;14589;51.578;7.306;2023-08-12T02:30:32;101191.25;;;21.35;100.00
27040;BME280;14589;51.578;7.306;2023-08-12T02:33:03;101203.38;;;21.34;100.00
27040;BME280;14589;51.578;7.306;2023-08-12T02:35:34;101187.22;;;21.31;100.00
27040;BME280;14589;51.578;7.306;2023-08-12T02:38:07;101182.75;;;21.30;100.00
27040;BME280;14589;51.578;7.306;2023-08-12T02:40:38;101190.41;;;21.28;100.00
27040;BME280;14589;51.578;7.306;2023-08-12T02:43:09;101178.50;;;21.21;100.00
27040;BME280;14589;51.578;7.306;2023-08-12T02:45:42;101178.50;;;21.21;100.00
27040;BME280;14589;51.578;7.306;2023-08-12T02:48:12;101180.34;;;21.14;100.00
27040;BME280;14589;51.578;7.306;2023-08-12T02:50:43;101175.88;;;21.13;100.00
27040;BME280;14589;51.578;7.306;2023-08-12T02:53:15;101172.91;;;21.08;100.00
27040;BME280;14589;51.578;7.306;2023-08-12T02:55:45;101169.50;;;21.06;100.00
27040;BME280;14589;51.578;7.306;2023-08-12T02:58:16;101175.44;;;21.03;100.00
27040;BME280;14589;51.578;7.306;2023-08-12T03:00:46;101170.31;;;21.00;100.00
27040;BME280;14589;51.578;7.306;2023-08-12T03:03:17;101164.19;;;20.98;100.00
27040;BME280;14589;51.578;7.306;2023-08-12T03:05:48;101169.69;;;20.98;100.00
27040;BME280;14589;51.578;7.306;2023-08-12T03:08:19;101169.69;;;20.98;100.00
27040;BME280;14589;51.578;7.306;2023-08-12T03:10:58;101155.25;;;20.96;100.00
27040;BME280;14589;51.578;7.306;2023-08-12T03:13:29;101154.59;;;20.94;100.00
27040;BME280;14589;51.578;7.306;2023-08-12T03:16:00;101155.25;;;20.96;100.00
27040;BME280;14589;51.578;7.306;2023-08-12T03:18:31;101145.28;;;20.95;100.00
27040;BME280;14589;51.578;7.306;2023-08-12T03:21:05;101142.28;;;20.90;100.00
27040;BME280;14589;51.578;7.306;2023-08-12T03:23:37;101137.59;;;20.84;100.00
27040;BME280;14589;51.578;7.306;2023-08-12T03:26:08;101136.72;;;20.77;100.00
27040;BME280;14589;51.578;7.306;2023-08-12T03:28:39;101140.94;;;20.73;100.00
27040;BME280;14589;51.578;7.306;2023-08-12T03:31:11;101129.03;;;20.66;100.00
27040;BME280;14589;51.578;7.306;2023-08-12T03:33:41;101132.81;;;20.58;100.00
27040;BME280;14589;51.578;7.306;2023-08-12T03:36:12;101135.56;;;20.58;100.00
27040;BME280;14589;51.578;7.306;2023-08-12T03:38:43;101123.03;;;20.55;100.00
27040;BME280;14589;51.578;7.306;2023-08-12T03:41:19;101135.38;;;20.59;100.00
27040;BME280;14589;51.578;7.306;2023-08-12T03:43:51;101137.50;;;20.64;100.00
27040;BME280;14589;51.578;7.306;2023-08-12T03:46:22;101128.56;;;20.62;100.00
27040;BME280;14589;51.578;7.306;2023-08-12T03:48:52;101129.84;;;20.59;100.00
27040;BME280;14589;51.578;7.306;2023-08-12T03:51:23;101129.41;;;20.56;100.00
27040;BME280;14589;51.578;7.306;2023-08-12T03:53:53;101131.28;;;20.55;100.00
27040;BME280;14589;51.578;7.306;2023-08-12T03:56:24;101119.84;;;20.52;100.00
27040;BME280;14589;51.578;7.306;2023-08-12T03:58:54;101118.59;;;20.54;100.00
27040;BME280;14589;51.578;7.306;2023-08-12T04:01:25;101113.06;;;20.48;100.00
27040;BME280;14589;51.578;7.306;2023-08-12T04:03:55;101119.00;;;20.51;100.00
27040;BME280;14589;51.578;7.306;2023-08-12T04:06:26;101119.66;;;20.53;100.00
27040;BME280;14589;51.578;7.306;2023-08-12T04:08:56;101112.00;;;20.49;100.00
27040;BME280;14589;51.578;7.306;2023-08-12T04:11:27;101110.72;;;20.51;100.00
27040;BME280;14589;51.578;7.306;2023-08-12T04:13:57;101118.19;;;20.57;100.00
27040;BME280;14589;51.578;7.306;2023-08-12T04:16:28;101112.66;;;20.57;100.00
27040;BME280;14589;51.578;7.306;2023-08-12T04:18:58;101099.75;;;20.58;100.00
27040;BME280;14589;51.578;7.306;2023-08-12T04:21:29;101101.88;;;20.63;100.00
27040;BME280;14589;51.578;7.306;2023-08-12T04:24:00;101104.66;;;20.69;100.00
27040;BME280;14589;51.578;7.306;2023-08-12T04:26:30;101095.75;;;20.67;100.00
27040;BME280;14589;51.578;7.306;2023-08-12T04:29:01;101104.06;;;20.74;100.00
27040;BME280;14589;51.578;7.306;2023-08-12T04:31:32;101099.38;;;20.74;100.00
27040;BME280;14589;51.578;7.306;2023-08-12T04:34:02;101100.66;;;20.72;100.00
27040;BME280;14589;51.578;7.306;2023-08-12T04:36:34;101094.28;;;20.71;100.00
27040;BME280;14589;51.578;7.306;2023-08-12T04:39:08;101089.44;;;20.73;100.00
27040;BME280;14589;51.578;7.306;2023-08-12T04:41:42;101069.25;;;20.66;100.00
27040;BME280;14589;51.578;7.306;2023-08-12T04:44:13;101064.34;;;20.68;100.00
27040;BME280;14589;51.578;7.306;2023-08-12T04:46:52;101046.72;;;20.56;100.00
27040;BME280;14589;51.578;7.306;2023-08-12T04:49:24;101062.47;;;20.69;100.00
27040;BME280;14589;51.578;7.306;2023-08-12T04:51:56;101058.00;;;20.68;100.00
27040;BME280;14589;51.578;7.306;2023-08-12T04:54:27;101055.25;;;20.68;100.00
27040;BME280;14589;51.578;7.306;2023-08-12T04:56:58;101072.88;;;20.73;100.00
27040;BME280;14589;51.578;7.306;2023-08-12T04:59:29;101059.09;;;20.73;100.00
27040;BME280;14589;51.578;7.306;2023-08-12T05:02:00;101060.34;;;20.71;100.00
27040;BME280;14589;51.578;7.306;2023-08-12T05:04:33;101055.25;;;20.68;100.00
27040;BME280;14589;51.578;7.306;2023-08-12T05:07:04;101048.44;;;20.64;100.00
27040;BME280;14589;51.578;7.306;2023-08-12T05:09:34;101055.66;;;20.65;100.00
27040;BME280;14589;51.578;7.306;2023-08-12T05:12:08;101054.19;;;20.69;100.00
27040;BME280;14589;51.578;7.306;2023-08-12T05:14:39;101045.91;;;20.69;100.00
27040;BME280;14589;51.578;7.306;2023-08-12T05:17:11;101037.44;;;20.64;100.00
27040;BME280;14589;51.578;7.306;2023-08-12T05:19:45;101046.56;;;20.71;100.00
27040;BME280;14589;51.578;7.306;2023-08-12T05:22:16;101048.69;;;20.69;100.00
27040;BME280;14589;51.578;7.306;2023-08-12T05:24:46;101064.16;;;20.70;100.00
27040;BME280;14589;51.578;7.306;2023-08-12T05:27:17;101048.69;;;20.69;100.00
27040;BME280;14589;51.578;7.306;2023-08-12T05:29:47;101064.81;;;20.72;100.00
27040;BME280;14589;51.578;7.306;2023-08-12T05:32:18;101057.81;;;20.76;100.00
27040;BME280;14589;51.578;7.306;2023-08-12T05:34:55;101058.06;;;20.87;100.00
27040;BME280;14589;51.578;7.306;2023-08-12T05:37:26;101052.56;;;20.94;100.00
27040;BME280;14589;51.578;7.306;2023-08-12T05:39:56;101050.28;;;21.04;100.00
27040;BME280;14589;51.578;7.306;2023-08-12T05:42:27;101039.66;;;21.08;100.00
27040;BME280;14589;51.578;7.306;2023-08-12T05:44:58;101052.59;;;21.14;100.00
27040;BME280;14589;51.578;7.306;2023-08-12T05:47:31;101043.09;;;21.16;100.00
27040;BME280;14589;51.578;7.306;2023-08-12T05:50:03;101044.59;;;21.32;100.00
27040;BME280;14589;51.578;7.306;2023-08-12T05:52:34;101037.59;;;21.36;100.00
27040;BME280;14589;51.578;7.306;2023-08-12T05:55:04;101034.63;;;21.37;100.00
27040;BME280;14589;51.578;7.306;2023-08-12T05:57:35;101036.31;;;21.32;100.00
27040;BME280;14589;51.578;7.306;2023-08-12T06:00:06;101035.91;;;21.35;100.00
27040;BME280;14589;51.578;7.306;2023-08-12T06:02:42;101032.06;;;21.29;100.00
27040;BME280;14589;51.578;7.306;2023-08-12T06:05:12;101039.50;;;21.35;100.00
27040;BME280;14589;51.578;7.306;2023-08-12T06:07:43;101031.66;;;21.32;100.00
27040;BME280;14589;51.578;7.306;2023-08-12T06:10:13;101035.06;;;21.34;100.00
27040;BME280;14589;51.578;7.306;2023-08-12T06:12:44;101041.19;;;21.36;100.00
27040;BME280;14589;51.578;7.306;2023-08-12T06:15:16;101036.13;;;21.33;100.00
27040;BME280;14589;51.578;7.306;2023-08-12T06:17:49;101038.88;;;21.33;100.00
27040;BME280;14589;51.578;7.306;2023-08-12T06:20:20;101036.31;;;21.25;100.00
27040;BME280;14589;51.578;7.306;2023-08-12T06:22:51;101044.81;;;21.30;100.00
27040;BME280;14589;51.578;7.306;2023-08-12T06:25:21;101026.78;;;21.21;100.00
27040;BME280;14589;51.578;7.306;2023-08-12T06:27:52;101019.13;;;21.17;100.00
27040;BME280;14589;51.578;7.306;2023-08-12T06:30:22;101020.59;;;21.26;100.00
27040;BME280;14589;51.578;7.306;2023-08-12T06:32:53;101022.72;;;21.24;100.00
27040;BME280;14589;51.578;7.306;2023-08-12T06:35:23;101028.03;;;21.19;100.00
27040;BME280;14589;51.578;7.306;2023-08-12T06:37:53;101030.38;;;21.15;100.00
27040;BME280;14589;51.578;7.306;2023-08-12T06:40:24;101030.38;;;21.15;100.00
27040;BME280;14589;51.578;7.306;2023-08-12T06:42:54;101028.03;;;21.19;100.00
27040;BME280;14589;51.578;7.306;2023-08-12T06:45:25;101025.03;;;21.14;100.00
27040;BME280;14589;51.578;7.306;2023-08-12T06:47:55;101013.13;;;21.07;100.00
27040;BME280;14589;51.578;7.306;2023-08-12T06:50:25;101008.66;;;20.99;100.00
27040;BME280;14589;51.578;7.306;2023-08-12T06:52:56;101017.59;;;21.01;100.00
27040;BME280;14589;51.578;7.306;2023-08-12T06:55:27;101019.28;;;21.02;100.00
27040;BME280;14589;51.578;7.306;2023-08-12T06:57:57;101017.19;;;21.04;100.00
27040;BME280;14589;51.578;7.306;2023-08-12T07:00:28;101015.25;;;21.05;100.00
27040;BME280;14589;51.578;7.306;2023-08-12T07:02:58;101016.53;;;21.09;100.00
27040;BME280;14589;51.578;7.306;2023-08-12T07:05:28;101018.22;;;21.03;100.00
27040;BME280;14589;51.578;7.306;2023-08-12T07:07:59;101022.91;;;21.03;100.00
27040;BME280;14589;51.578;7.306;2023-08-12T07:10:29;101009.31;;;21.01;100.00
27040;BME280;14589;51.578;7.306;2023-08-12T07:13:00;101009.50;;;20.99;100.00
27040;BME280;14589;51.578;7.306;2023-08-12T07:15:30;101002.28;;;20.98;100.00
27040;BME280;14589;51.578;7.306;2023-08-12T07:18:00;100997.88;;;20.97;100.00
27040;BME280;14589;51.578;7.306;2023-08-12T07:20:31;100993.59;;;20.95;100.00
27040;BME280;14589;51.578;7.306;2023-08-12T07:23:01;100992.56;;;20.96;100.00
27040;BME280;14589;51.578;7.306;2023-08-12T07:25:32;100982.38;;;20.90;100.00
27040;BME280;14589;51.578;7.306;2023-08-12T07:28:02;100988.72;;;20.90;100.00
27040;BME280;14589;51.578;7.306;2023-08-12T07:30:35;100992.09;;;20.92;100.00
27040;BME280;14589;51.578;7.306;2023-08-12T07:33:06;100997.00;;;20.90;100.00
27040;BME280;14589;51.578;7.306;2023-08-12T07:35:37;100996.38;;;20.95;100.00
27040;BME280;14589;51.578;7.306;2023-08-12T07:38:07;101015.66;;;20.95;100.00
27040;BME280;14589;51.578;7.306;2023-08-12T07:40:38;101010.78;;;20.90;100.00
27040;BME280;14589;51.578;7.306;2023-08-12T07:43:08;101006.13;;;20.97;100.00
27040;BME280;14589;51.578;7.306;2023-08-12T07:45:38;100995.94;;;21.05;100.00
27040;BME280;14589;51.578;7.306;2023-08-12T07:48:09;100991.06;;;21.13;100.00
27040;BME280;14589;51.578;7.306;2023-08-12T07:50:39;100994.72;;;21.20;100.00
27040;BME280;14589;51.578;7.306;2023-08-12T07:53:10;101000.66;;;21.24;100.00
27040;BME280;14589;51.578;7.306;2023-08-12T07:55:41;101004.47;;;21.29;100.00
27040;BME280;14589;51.578;7.306;2023-08-12T07:58:11;101003.22;;;21.25;100.00
27040;BME280;14589;51.578;7.306;2023-08-12T08:00:41;101007.22;;;21.29;100.00
27040;BME280;14589;51.578;7.306;2023-08-12T08:03:12;101006.63;;;21.34;100.00
27040;BME280;14589;51.578;7.306;2023-08-12T08:05:42;100996.44;;;21.34;100.00
27040;BME280;14589;51.578;7.306;2023-08-12T08:08:15;100991.97;;;21.33;100.00
27040;BME280;14589;51.578;7.306;2023-08-12T08:10:46;100977.97;;;21.42;100.00
27040;BME280;14589;51.578;7.306;2023-08-12T08:13:16;100979.63;;;21.62;100.00
27040;BME280;14589;51.578;7.306;2023-08-12T08:15:46;100981.31;;;21.70;100.00
27040;BME280;14589;51.578;7.306;2023-08-12T08:18:17;100968.34;;;21.77;100.00
27040;BME280;14589;51.578;7.306;2023-08-12T08:20:47;100978.25;;;21.91;100.00
27040;BME280;14589;51.578;7.306;2023-08-12T08:23:18;100968.72;;;22.00;100.00
27040;BME280;14589;51.578;7.306;2023-08-12T08:25:48;100962.09;;;22.14;100.00
27040;BME280;14589;51.578;7.306;2023-08-12T08:28:19;100984.19;;;22.14;100.00
27040;BME280;14589;51.578;7.306;2023-08-12T08:30:49;100976.28;;;22.25;100.00
27040;BME280;14589;51.578;7.306;2023-08-12T08:33:20;100973.28;;;22.33;100.00
27040;BME280;14589;51.578;7.306;2023-08-12T08:35:50;100985.13;;;22.46;100.00
27040;BME280;14589;51.578;7.306;2023-08-12T08:38:20;100975.72;;;22.47;100.00
27040;BME280;14589;51.578;7.306;2023-08-12T08:40:51;100980.22;;;22.42;100.00
27040;BME280;14589;51.578;7.306;2023-08-12T08:43:22;100984.31;;;22.33;100.00
27040;BME280;14589;51.578;7.306;2023-08-12T08:45:53;100978.22;;;22.17;100.00
27040;BME280;14589;51.578;7.306;2023-08-12T08:48:24;100975.25;;;22.12;100.00
27040;BME280;14589;51.578;7.306;2023-08-12T08:50:55;100978.88;;;22.13;100.00
27040;BME280;14589;51.578;7.306;2023-08-12T08:53:26;100972.94;;;22.09;100.00
27040;BME280;14589;51.578;7.306;2023-08-12T08:55:56;100976.09;;;22.19;100.00
27040;BME280;14589;51.578;7.306;2023-08-12T08:58:29;100989.06;;;22.19;100.00
27040;BME280;14589;51.578;7.306;2023-08-12T09:01:00;100989.03;;;22.26;100.00
27040;BME280;14589;51.578;7.306;2023-08-12T09:03:33;100985.63;;;22.24;100.00
27040;BME280;14589;51.578;7.306;2023-08-12T09:06:05;100986.91;;;22.28;100.00
27040;BME280;14589;51.578;7.306;2023-08-12T09:08:37;100979.44;;;22.28;100.00
27040;BME280;14589;51.578;7.306;2023-08-12T09:11:12;100973.97;;;22.22;100.00
27040;BME280;14589;51.578;7.306;2023-08-12T09:13:44;100987.53;;;22.23;100.00
27040;BME280;14589;51.578;7.306;2023-08-12T09:16:15;100990.28;;;22.30;100.00
27040;BME280;14589;51.578;7.306;2023-08-12T09:18:45;100982.00;;;22.30;100.00
27040;BME280;14589;51.578;7.306;2023-08-12T09:21:16;100985.34;;;22.45;100.00
27040;BME280;14589;51.578;7.306;2023-08-12T09:23:46;100983.75;;;22.62;100.00
27040;BME280;14589;51.578;7.306;2023-08-12T09:26:19;100996.47;;;22.76;100.00
27040;BME280;14589;51.578;7.306;2023-08-12T09:28:50;100988.16;;;22.70;100.00
27040;BME280;14589;51.578;7.306;2023-08-12T09:31:28;100988.81;;;22.65;100.00
27040;BME280;14589;51.578;7.306;2023-08-12T09:34:03;100996.03;;;22.66;100.00
27040;BME280;14589;51.578;7.306;2023-08-12T09:36:34;100998.22;;;22.64;100.00
27040;BME280;14589;51.578;7.306;2023-08-12T09:39:08;100986.75;;;22.54;100.00
27040;BME280;14589;51.578;7.306;2023-08-12T09:41:38;100988.63;;;22.60;100.00
27040;BME280;14589;51.578;7.306;2023-08-12T09:44:09;100984.41;;;22.57;100.00
27040;BME280;14589;51.578;7.306;2023-08-12T09:46:40;100976.09;;;22.64;100.00
27040;BME280;14589;51.578;7.306;2023-08-12T09:49:10;100976.09;;;22.64;100.00
27040;BME280;14589;51.578;7.306;2023-08-12T09:51:41;100979.03;;;22.69;100.00
27040;BME280;14589;51.578;7.306;2023-08-12T09:54:12;100974.94;;;22.72;100.00
27040;BME280;14589;51.578;7.306;2023-08-12T09:56:49;100963.94;;;22.65;100.00
27040;BME280;14589;51.578;7.306;2023-08-12T09:59:24;100971.63;;;22.63;100.00
27040;BME280;14589;51.578;7.306;2023-08-12T10:01:55;100979.91;;;22.63;100.00
27040;BME280;14589;51.578;7.306;2023-08-12T10:04:39;100990.75;;;22.65;100.00
27040;BME280;14589;51.578;7.306;2023-08-12T10:07:11;100983.75;;;22.62;100.00
27040;BME280;14589;51.578;7.306;2023-08-12T10:09:44;100987.75;;;22.66;100.00
27040;BME280;14589;51.578;7.306;2023-08-12T10:12:15;100988.59;;;22.73;100.00
27040;BME280;14589;51.578;7.306;2023-08-12T10:14:46;100987.28;;;22.82;100.00
27040;BME280;14589;51.578;7.306;2023-08-12T10:17:17;100987.50;;;22.81;100.00
27040;BME280;14589;51.578;7.306;2023-08-12T10:19:54;100989.38;;;22.87;100.00
27040;BME280;14589;51.578;7.306;2023-08-12T10:22:25;100978.25;;;22.93;100.00
27040;BME280;14589;51.578;7.306;2023-08-12T10:25:01;100992.09;;;22.93;100.00
27040;BME280;14589;51.578;7.306;2023-08-12T10:27:32;100996.09;;;22.97;100.00
27040;BME280;14589;51.578;7.306;2023-08-12T10:30:04;100982.69;;;23.01;100.00
27040;BME280;14589;51.578;7.306;2023-08-12T10:32:35;100983.81;;;23.18;100.00
27040;BME280;14589;51.578;7.306;2023-08-12T10:35:06;100986.25;;;23.33;99.52
27040;BME280;14589;51.578;7.306;2023-08-12T10:37:39;100987.72;;;23.60;97.70
27040;BME280;14589;51.578;7.306;2023-08-12T10:40:20;100984.53;;;23.82;95.66
27040;BME280;14589;51.578;7.306;2023-08-12T10:42:51;100996.53;;;23.75;97.69
27040;BME280;14589;51.578;7.306;2023-08-12T10:45:21;100991.09;;;23.87;97.95
27040;BME280;14589;51.578;7.306;2023-08-12T10:48:11;100979.97;;;23.69;100.00
27040;BME280;14589;51.578;7.306;2023-08-12T10:50:48;100986.94;;;23.53;100.00
27040;BME280;14589;51.578;7.306;2023-08-12T10:53:27;100979.56;;;23.65;100.00
27040;BME280;14589;51.578;7.306;2023-08-12T10:56:03;100990.16;;;23.75;100.00
27040;BME280;14589;51.578;7.306;2023-08-12T10:58:40;100986.97;;;23.90;100.00
27040;BME280;14589;51.578;7.306;2023-08-12T11:01:17;100984.38;;;23.95;99.54
27040;BME280;14589;51.578;7.306;2023-08-12T11:03:48;100975.66;;;24.46;97.35
27040;BME280;14589;51.578;7.306;2023-08-12T11:06:19;100971.78;;;24.95;96.75
27040;BME280;14589;51.578;7.306;2023-08-12T11:08:53;100968.47;;;25.39;92.86
27040;BME280;14589;51.578;7.306;2023-08-12T11:11:23;100960.25;;;25.21;86.96
27040;BME280;14589;51.578;7.306;2023-08-12T11:13:57;100971.59;;;25.20;86.27
27040;BME280;14589;51.578;7.306;2023-08-12T11:16:37;100971.66;;;25.66;94.07
27040;BME280;14589;51.578;7.306;2023-08-12T11:19:08;100972.97;;;25.87;93.76
27040;BME280;14589;51.578;7.306;2023-08-12T11:21:39;100973.09;;;25.81;86.39
27040;BME280;14589;51.578;7.306;2023-08-12T11:24:09;100962.34;;;25.84;87.26
27040;BME280;14589;51.578;7.306;2023-08-12T11:26:41;100950.38;;;25.84;86.23
27040;BME280;14589;51.578;7.306;2023-08-12T11:29:12;100962.34;;;25.84;84.11
27040;BME280;14589;51.578;7.306;2023-08-12T11:31:43;100966.56;;;25.75;86.37
27040;BME280;14589;51.578;7.306;2023-08-12T11:34:15;100954.25;;;25.71;89.73
27040;BME280;14589;51.578;7.306;2023-08-12T11:36:45;100967.63;;;25.51;88.42
27040;BME280;14589;51.578;7.306;2023-08-12T11:39:16;100962.19;;;25.44;90.46
27040;BME280;14589;51.578;7.306;2023-08-12T11:41:46;100965.34;;;25.36;91.58
27040;BME280;14589;51.578;7.306;2023-08-12T11:44:21;100965.94;;;25.26;90.83
27040;BME280;14589;51.578;7.306;2023-08-12T11:46:55;100959.72;;;25.01;90.84
27040;BME280;14589;51.578;7.306;2023-08-12T11:49:25;100974.25;;;24.85;91.69
27040;BME280;14589;51.578;7.306;2023-08-12T11:51:56;100960.34;;;24.73;93.47
27040;BME280;14589;51.578;7.306;2023-08-12T11:54:26;100967.66;;;24.56;91.14
27040;BME280;14589;51.578;7.306;2023-08-12T11:56:58;100960.06;;;24.33;92.61
27040;BME280;14589;51.578;7.306;2023-08-12T11:59:30;100959.13;;;24.39;93.30
27040;BME280;14589;51.578;7.306;2023-08-12T12:02:01;100966.41;;;24.52;91.96
27040;BME280;14589;51.578;7.306;2023-08-12T12:04:32;100963.34;;;24.72;91.75
27040;BME280;14589;51.578;7.306;2023-08-12T12:07:03;100945.53;;;24.79;90.37
27040;BME280;14589;51.578;7.306;2023-08-12T12:09:36;100955.34;;;24.93;88.74
27040;BME280;14589;51.578;7.306;2023-08-12T12:12:09;100961.53;;;25.07;88.79
27040;BME280;14589;51.578;7.306;2023-08-12T12:14:40;100963.00;;;25.10;87.63
27040;BME280;14589;51.578;7.306;2023-08-12T12:17:10;100970.94;;;25.06;87.94
27040;BME280;14589;51.578;7.306;2023-08-12T12:19:42;100954.91;;;24.96;87.81
27040;BME280;14589;51.578;7.306;2023-08-12T12:22:15;100954.28;;;25.06;87.30
27040;BME280;14589;51.578;7.306;2023-08-12T12:24:47;100948.19;;;25.16;86.74
27040;BME280;14589;51.578;7.306;2023-08-12T12:27:17;100942.63;;;25.16;86.97
27040;BME280;14589;51.578;7.306;2023-08-12T12:29:48;100935.25;;;25.21;86.71
27040;BME280;14589;51.578;7.306;2023-08-12T12:32:19;100937.53;;;25.13;86.56
27040;BME280;14589;51.578;7.306;2023-08-12T12:34:50;100945.16;;;25.06;86.60
27040;BME280;14589;51.578;7.306;2023-08-12T12:37:21;100946.88;;;24.88;89.60
27040;BME280;14589;51.578;7.306;2023-08-12T12:39:51;100970.47;;;24.68;92.25
27040;BME280;14589;51.578;7.306;2023-08-12T12:42:22;100971.75;;;24.35;96.77
27040;BME280;14589;51.578;7.306;2023-08-12T12:44:52;100960.19;;;23.84;100.00
27040;BME280;14589;51.578;7.306;2023-08-12T12:47:23;100958.81;;;23.74;100.00
27040;BME280;14589;51.578;7.306;2023-08-12T12:49:53;100976.66;;;23.78;100.00
27040;BME280;14589;51.578;7.306;2023-08-12T12:52:23;100974.53;;;23.81;100.00
27040;BME280;14589;51.578;7.306;2023-08-12T12:54:54;100976.88;;;23.77;100.00
27040;BME280;14589;51.578;7.306;2023-08-12T12:57:26;100975.44;;;23.74;100.00
27040;BME280;14589;51.578;7.306;2023-08-12T12:59:56;100970.06;;;23.79;100.00
27040;BME280;14589;51.578;7.306;2023-08-12T13:02:26;100991.13;;;23.62;100.00
27040;BME280;14589;51.578;7.306;2023-08-12T13:04:57;100988.88;;;23.46;100.00